Time;durP1;ratioP1;P1;durP2;ratioP2;P2;SDS_P1;SDS_P2;PMS_P1;PMS_P2;Temp;Humidity;BMP_temperature;BMP_pressure;BME280_temperature;BME280_humidity;BME280_pressure;Samples;Min_cycle;Max_cycle;Signal;HPM_P1;HPM_P2
2024/02/20 00:00:43;;;;;;;9.27;2.30;;;;;;;8.70;100.00;102015.56;6250033;28;20458;-74
2024/02/20 00:03:45;;;;;;;9.10;2.08;;;;;;;8.68;100.00;102006.03;6250163;28;20045;-74
2024/02/20 00:06:46;;;;;;;5.53;1.95;;;;;;;8.67;100.00;102009.53;6250245;28;20052;-73
2024/02/20 00:09:48;;;;;;;19.13;1.80;;;;;;;8.69;100.00;102006.00;6249381;28;20045;-73
2024/02/20 00:12:50;;;;;;;10.10;2.70;;;;;;;8.70;100.00;102009.47;6250037;28;20041;-73
2024/02/20 00:15:52;;;;;;;7.85;1.92;;;;;;;8.55;100.00;102011.56;6249578;28;20056;-74
2024/02/20 00:18:54;;;;;;;10.68;1.95;;;;;;;8.63;100.00;102006.16;6255446;28;20446;-74
2024/02/20 00:21:55;;;;;;;9.75;1.65;;;;;;;8.66;100.00;102016.53;6253192;28;20052;-74
2024/02/20 00:24:56;;;;;;;12.50;2.63;;;;;;;8.56;100.00;102010.66;6249600;28;20076;-74
2024/02/20 00:27:58;;;;;;;10.88;2.53;;;;;;;8.78;100.00;102018.88;6252093;28;20060;-74
2024/02/20 00:31:00;;;;;;;11.50;2.53;;;;;;;8.98;100.00;102017.47;6254501;28;20052;-74
2024/02/20 00:34:02;;;;;;;8.52;2.53;;;;;;;8.94;100.00;102021.94;6254443;28;20049;-74
2024/02/20 00:37:05;;;;;;;8.57;2.83;;;;;;;8.75;100.00;102012.84;6268777;28;20456;-74
2024/02/20 00:40:09;;;;;;;8.02;2.33;;;;;;;8.66;100.00;102020.94;6272358;28;20130;-73
2024/02/20 00:43:12;;;;;;;7.07;2.63;;;;;;;8.67;100.00;102025.25;6277317;28;20041;-74
2024/02/20 00:46:19;;;;;;;6.78;2.25;;;;;;;8.60;100.00;102024.56;6278934;28;20140;-73
2024/02/20 00:49:21;;;;;;;14.73;2.65;;;;;;;8.71;100.00;102027.75;6281062;28;20178;-74
2024/02/20 00:52:24;;;;;;;13.18;2.55;;;;;;;8.61;100.00;102035.00;6280418;28;20060;-72
2024/02/20 00:55:25;;;;;;;21.30;3.10;;;;;;;8.61;100.00;102031.53;6280087;28;20049;-71
2024/02/20 00:58:26;;;;;;;6.43;1.52;;;;;;;8.61;100.00;102037.63;6278484;28;20053;-71
2024/02/20 01:01:29;;;;;;;7.13;2.00;;;;;;;8.56;100.00;102047.34;6279195;28;20056;-72
2024/02/20 01:04:31;;;;;;;17.00;1.52;;;;;;;8.62;100.00;102041.94;6278573;28;20056;-73
2024/02/20 01:07:32;;;;;;;12.18;2.22;;;;;;;8.69;100.00;102055.78;6278648;28;20080;-72
2024/02/20 01:10:34;;;;;;;15.90;2.08;;;;;;;8.69;100.00;102040.06;6269593;28;20050;-73
2024/02/20 01:13:35;;;;;;;4.18;1.13;;;;;;;8.77;100.00;102043.34;6255380;28;20046;-74
2024/02/20 01:16:38;;;;;;;11.05;1.40;;;;;;;8.72;100.00;102047.84;6253759;28;20069;-73
2024/02/20 01:19:39;;;;;;;15.38;2.17;;;;;;;8.67;100.00;102049.69;6253095;28;20454;-72
2024/02/20 01:22:41;;;;;;;13.35;1.60;;;;;;;8.60;100.00;102061.25;6253786;28;20049;-73
2024/02/20 01:25:43;;;;;;;5.85;1.10;;;;;;;8.62;100.00;102054.19;6254148;28;20057;-72
2024/02/20 01:28:44;;;;;;;8.30;1.80;;;;;;;8.67;100.00;102061.94;6252993;28;20049;-74
2024/02/20 01:31:47;;;;;;;4.03;1.48;;;;;;;8.57;100.00;102053.44;6253068;28;20342;-74
2024/02/20 01:34:48;;;;;;;8.50;1.40;;;;;;;8.63;100.00;102059.44;6253024;28;20045;-75
2024/02/20 01:37:49;;;;;;;13.27;2.58;;;;;;;8.60;100.00;102056.88;6264595;28;20048;-73
2024/02/20 01:40:51;;;;;;;11.60;1.50;;;;;;;8.67;100.00;102054.94;6298800;22;20472;-72
2024/02/20 01:43:52;;;;;;;6.00;1.85;;;;;;;8.64;100.00;102062.91;6325324;28;20078;-73
2024/02/20 01:46:55;;;;;;;15.73;2.28;;;;;;;8.60;100.00;102059.50;6317656;28;20071;-74
2024/02/20 01:49:58;;;;;;;7.03;2.10;;;;;;;8.61;100.00;102066.44;6320066;28;20122;-73
2024/02/20 01:52:59;;;;;;;11.38;2.15;;;;;;;8.56;100.00;102062.22;6297159;28;20075;-73
2024/02/20 01:56:06;;;;;;;18.00;2.38;;;;;;;8.61;100.00;102069.06;6287734;28;20048;-73
2024/02/20 01:59:07;;;;;;;18.10;2.35;;;;;;;8.58;100.00;102070.88;6277626;28;20049;-73
2024/02/20 02:02:10;;;;;;;12.95;2.67;;;;;;;8.49;100.00;102077.19;6287256;28;20051;-73
2024/02/20 02:05:11;;;;;;;11.07;2.25;;;;;;;8.48;100.00;102083.34;6285654;28;20049;-73
2024/02/20 02:08:15;;;;;;;13.57;2.53;;;;;;;8.41;100.00;102079.16;6284511;28;20085;-73
2024/02/20 02:11:16;;;;;;;11.25;1.67;;;;;;;8.31;100.00;102085.44;6282547;28;20055;-73
2024/02/20 02:14:18;;;;;;;10.52;2.40;;;;;;;8.25;100.00;102093.44;6291709;28;20334;-72
2024/02/20 02:17:20;;;;;;;14.98;2.42;;;;;;;8.27;100.00;102095.16;6284692;28;20049;-72
2024/02/20 02:20:22;;;;;;;14.65;2.38;;;;;;;8.29;100.00;102089.88;6292713;28;20044;-73
2024/02/20 02:23:23;;;;;;;18.63;2.58;;;;;;;8.33;100.00;102097.63;6300690;28;20051;-73
2024/02/20 02:26:26;;;;;;;19.92;2.60;;;;;;;8.30;100.00;102091.59;6284489;28;20056;-73
2024/02/20 02:29:27;;;;;;;10.50;2.30;;;;;;;8.38;100.00;102093.19;6275732;28;20052;-73
2024/02/20 02:32:29;;;;;;;23.73;3.72;;;;;;;8.27;100.00;102102.16;6276354;28;20045;-73
2024/02/20 02:35:31;;;;;;;12.70;3.17;;;;;;;8.34;100.00;102101.97;6275920;28;20044;-73
2024/02/20 02:38:32;;;;;;;21.60;3.50;;;;;;;8.32;100.00;102109.00;6275839;28;20105;-73
2024/02/20 02:41:34;;;;;;;20.90;4.22;;;;;;;8.33;100.00;102107.25;6275813;28;20056;-73
2024/02/20 02:44:37;;;;;;;21.48;3.92;;;;;;;8.29;100.00;102105.59;6275815;28;20048;-72
2024/02/20 02:47:38;;;;;;;19.48;3.05;;;;;;;8.31;100.00;102116.88;6283633;28;20052;-73
2024/02/20 02:50:39;;;;;;;23.02;4.00;;;;;;;8.22;100.00;102123.22;6275241;28;20060;-73
2024/02/20 02:53:41;;;;;;;22.77;3.78;;;;;;;8.27;100.00;102126.59;6275476;28;20046;-73
2024/02/20 02:56:44;;;;;;;10.13;2.58;;;;;;;8.29;100.00;102135.25;6275598;28;20061;-73
2024/02/20 02:59:45;;;;;;;14.00;3.08;;;;;;;8.23;100.00;102137.16;6275126;28;20135;-73
2024/02/20 03:02:47;;;;;;;16.27;3.47;;;;;;;8.29;100.00;102135.25;6275412;28;20044;-74
2024/02/20 03:05:48;;;;;;;17.05;3.20;;;;;;;8.34;100.00;102141.25;6275467;28;20059;-73
2024/02/20 03:08:49;;;;;;;24.67;3.35;;;;;;;8.20;100.00;102138.06;6274859;28;20048;-74
2024/02/20 03:11:52;;;;;;;19.50;2.60;;;;;;;8.14;100.00;102141.69;6275452;28;20049;-73
2024/02/20 03:14:54;;;;;;;27.23;2.78;;;;;;;8.12;100.00;102142.59;6274908;28;20360;-73
2024/02/20 03:17:55;;;;;;;18.00;3.03;;;;;;;7.96;100.00;102151.69;6275137;28;20049;-73
2024/02/20 03:20:58;;;;;;;21.17;2.88;;;;;;;8.13;100.00;102150.44;6275111;28;20041;-73
2024/02/20 03:23:59;;;;;;;34.08;2.85;;;;;;;8.13;100.00;102158.31;6274983;28;20045;-74
2024/02/20 03:27:03;;;;;;;17.88;2.33;;;;;;;8.09;100.00;102155.78;6275282;28;20049;-74
2024/02/20 03:30:06;;;;;;;20.13;2.25;;;;;;;8.05;100.00;102157.59;6274451;28;20445;-75
2024/02/20 03:33:08;;;;;;;15.43;2.85;;;;;;;8.17;100.00;102156.44;6275112;28;20053;-74
2024/02/20 03:36:09;;;;;;;27.50;3.00;;;;;;;8.18;100.00;102155.59;6274675;28;20076;-74
2024/02/20 03:39:11;;;;;;;29.85;2.35;;;;;;;8.08;100.00;102165.38;6274626;28;20048;-73
2024/02/20 03:42:17;;;;;;;19.27;2.38;;;;;;;8.06;100.00;102161.06;6273473;28;20109;-74
2024/02/20 03:45:19;;;;;;;16.20;2.58;;;;;;;8.14;100.00;102169.63;6299415;28;20476;-74
2024/02/20 03:48:20;;;;;;;17.20;2.33;;;;;;;8.07;100.00;102168.88;6299142;28;20052;-74
2024/02/20 03:51:21;;;;;;;24.13;2.88;;;;;;;8.13;100.00;102178.38;6299240;28;20357;-74
2024/02/20 03:54:23;;;;;;;26.17;2.58;;;;;;;8.11;100.00;102167.94;6299558;28;20045;-74
2024/02/20 03:57:25;;;;;;;19.08;3.22;;;;;;;8.10;100.00;102173.19;6299268;28;20045;-73
2024/02/20 04:00:27;;;;;;;24.88;2.85;;;;;;;8.11;100.00;102181.00;6299154;28;20460;-74
2024/02/20 04:03:28;;;;;;;23.83;3.75;;;;;;;8.17;100.00;102181.78;6302417;28;20049;-74
2024/02/20 04:06:29;;;;;;;27.95;3.70;;;;;;;8.05;100.00;102183.78;6304384;28;20063;-74
2024/02/20 04:09:32;;;;;;;19.95;3.25;;;;;;;8.03;100.00;102187.28;6303925;28;20056;-74
2024/02/20 04:12:35;;;;;;;18.20;3.08;;;;;;;8.01;100.00;102191.72;6304429;28;20048;-74
2024/02/20 04:15:37;;;;;;;16.67;2.60;;;;;;;8.02;100.00;102199.53;6303862;28;20111;-74
2024/02/20 04:18:40;;;;;;;18.77;2.70;;;;;;;7.95;100.00;102205.78;6297342;28;20056;-74
2024/02/20 04:21:41;;;;;;;31.05;3.13;;;;;;;7.89;100.00;102196.28;6297450;28;20048;-74
2024/02/20 04:24:42;;;;;;;26.05;3.00;;;;;;;7.91;100.00;102198.88;6293344;28;20048;-74
2024/02/20 04:27:47;;;;;;;14.40;2.03;;;;;;;7.92;100.00;102200.59;6293135;28;20056;-74
2024/02/20 04:30:48;;;;;;;22.35;2.30;;;;;;;7.94;100.00;102200.56;6290550;28;20459;-74
2024/02/20 04:33:50;;;;;;;34.65;3.05;;;;;;;7.84;100.00;102200.72;6289484;28;20047;-73
2024/02/20 04:36:51;;;;;;;34.38;2.80;;;;;;;7.89;100.00;102198.03;6298138;28;20359;-74
2024/02/20 04:39:52;;;;;;;29.02;4.68;;;;;;;7.85;100.00;102207.69;6297818;28;20131;-74
2024/02/20 04:42:55;;;;;;;25.23;3.25;;;;;;;7.95;100.00;102204.91;6287001;28;20048;-74
2024/02/20 04:45:56;;;;;;;18.45;4.25;;;;;;;8.00;100.00;102210.94;6290674;28;20052;-74
2024/02/20 04:48:58;;;;;;;30.15;3.53;;;;;;;7.87;100.00;102212.91;6293180;28;20048;-74
2024/02/20 04:51:59;;;;;;;14.90;2.58;;;;;;;7.81;100.00;102221.75;6292566;28;20352;-74
2024/02/20 04:55:02;;;;;;;22.60;2.67;;;;;;;7.86;100.00;102211.19;6303135;28;20052;-73
2024/02/20 04:58:05;;;;;;;24.92;4.22;;;;;;;7.76;100.00;102215.72;6291376;28;20049;-74
2024/02/20 05:01:07;;;;;;;26.15;2.78;;;;;;;7.78;100.00;102219.19;6287247;28;20132;-74
2024/02/20 05:04:10;;;;;;;17.45;3.35;;;;;;;7.78;100.00;102223.56;6289078;28;20041;-74
2024/02/20 05:07:11;;;;;;;32.78;4.70;;;;;;;7.78;100.00;102227.03;6287178;28;20262;-74
2024/02/20 05:10:13;;;;;;;26.95;3.58;;;;;;;7.84;100.00;102224.28;6295519;28;20055;-73
2024/02/20 05:13:15;;;;;;;23.35;2.80;;;;;;;7.88;100.00;102233.81;6302269;28;20360;-74
2024/02/20 05:16:17;;;;;;;15.02;2.40;;;;;;;7.89;100.00;102224.19;6302631;28;20053;-74
2024/02/20 05:19:18;;;;;;;27.27;2.78;;;;;;;7.89;100.00;102230.31;6302501;28;20414;-74
2024/02/20 05:22:19;;;;;;;21.40;2.45;;;;;;;7.78;100.00;102231.41;6294681;28;20047;-73
2024/02/20 05:25:21;;;;;;;18.90;2.42;;;;;;;7.73;100.00;102241.94;6285976;28;20044;-74
2024/02/20 05:28:23;;;;;;;30.70;4.07;;;;;;;7.82;100.00;102228.69;6293518;28;20061;-74
2024/02/20 05:31:28;;;;;;;29.42;3.03;;;;;;;7.76;100.00;102239.25;6302665;28;20464;-74
2024/02/20 05:34:29;;;;;;;27.88;2.92;;;;;;;7.78;100.00;102244.47;6300392;28;20127;-74
2024/02/20 05:37:30;;;;;;;27.83;3.95;;;;;;;7.71;100.00;102240.25;6285244;28;20092;-74
2024/02/20 05:40:32;;;;;;;23.83;3.22;;;;;;;7.65;100.00;102240.34;6277543;28;20052;-73
2024/02/20 05:43:34;;;;;;;21.25;2.45;;;;;;;7.65;100.00;102230.75;6278187;28;20045;-74
2024/02/20 05:46:39;;;;;;;27.00;3.88;;;;;;;7.68;100.00;102235.09;6285694;28;20072;-74
2024/02/20 05:49:41;;;;;;;21.88;3.60;;;;;;;7.61;100.00;102236.91;6276799;28;20049;-74
2024/02/20 05:52:43;;;;;;;16.85;2.40;;;;;;;7.70;100.00;102241.13;6277262;28;20128;-74
2024/02/20 05:55:44;;;;;;;21.25;3.67;;;;;;;7.74;100.00;102237.56;6291360;28;20459;-74
2024/02/20 05:58:47;;;;;;;41.10;5.43;;;;;;;7.69;100.00;102250.75;6293114;28;20059;-74
2024/02/20 06:01:48;;;;;;;30.50;2.85;;;;;;;7.68;100.00;102253.41;6301707;28;20119;-73
2024/02/20 06:04:50;;;;;;;27.45;2.97;;;;;;;7.68;100.00;102254.25;6301611;28;20047;-73
2024/02/20 06:07:52;;;;;;;31.98;3.38;;;;;;;7.74;100.00;102253.28;6292754;28;20044;-73
2024/02/20 06:10:54;;;;;;;26.38;3.35;;;;;;;7.72;100.00;102255.94;6280946;28;20045;-74
2024/02/20 06:13:57;;;;;;;28.13;4.03;;;;;;;7.73;100.00;102260.28;6276643;28;20431;-74
2024/02/20 06:16:58;;;;;;;25.65;3.15;;;;;;;7.66;100.00;102261.25;6276541;28;20052;-74
2024/02/20 06:19:59;;;;;;;27.10;2.95;;;;;;;7.66;100.00;102269.09;6276182;28;20057;-73
2024/02/20 06:23:01;;;;;;;42.70;2.67;;;;;;;7.61;100.00;102265.69;6276455;28;20048;-73
2024/02/20 06:26:02;;;;;;;26.65;3.65;;;;;;;7.65;100.00;102271.75;6275273;28;20360;-74
2024/02/20 06:29:06;;;;;;;28.50;3.55;;;;;;;7.68;100.00;102269.09;6275744;28;20433;-73
2024/02/20 06:32:08;;;;;;;32.30;2.85;;;;;;;7.73;100.00;102268.13;6276357;28;20055;-74
2024/02/20 06:35:09;;;;;;;26.75;3.28;;;;;;;7.77;100.00;102263.69;6275998;28;20045;-74
2024/02/20 06:38:11;;;;;;;26.80;3.20;;;;;;;7.67;100.00;102272.56;6275699;28;20190;-73
2024/02/20 06:41:12;;;;;;;21.83;4.25;;;;;;;7.66;100.00;102270.84;6275740;28;20045;-73
2024/02/20 06:44:15;;;;;;;39.15;3.75;;;;;;;7.67;100.00;102264.72;6275870;28;20052;-73
2024/02/20 06:47:16;;;;;;;38.67;4.22;;;;;;;7.55;100.00;102268.44;6275935;28;20045;-74
2024/02/20 06:50:18;;;;;;;23.88;3.28;;;;;;;7.52;100.00;102263.22;6275243;28;20465;-73
2024/02/20 06:53:19;;;;;;;24.70;3.47;;;;;;;7.53;100.00;102264.94;6275622;28;20348;-73
2024/02/20 06:56:20;;;;;;;33.72;3.22;;;;;;;7.58;100.00;102260.50;6275307;28;20441;-74
2024/02/20 06:59:23;;;;;;;26.63;2.67;;;;;;;7.44;100.00;102259.88;6275192;28;20049;-74
2024/02/20 07:02:24;;;;;;;37.45;3.00;;;;;;;7.44;100.00;102267.72;6275418;28;20419;-74
2024/02/20 07:05:26;;;;;;;30.50;3.40;;;;;;;7.47;100.00;102267.69;6275664;28;20052;-74
2024/02/20 07:08:27;;;;;;;21.25;4.35;;;;;;;7.54;100.00;102264.94;6291570;28;20059;-74
2024/02/20 07:11:28;;;;;;;25.02;3.45;;;;;;;7.44;100.00;102267.72;6300357;28;20052;-73
2024/02/20 07:14:31;;;;;;;26.73;2.90;;;;;;;7.39;100.00;102270.41;6299984;28;20048;-74
2024/02/20 07:17:33;;;;;;;36.83;3.90;;;;;;;7.42;100.00;102283.44;6299695;28;20076;-74
2024/02/20 07:20:36;;;;;;;23.95;3.47;;;;;;;7.40;100.00;102277.34;6300209;28;20424;-73
2024/02/20 07:23:38;;;;;;;30.35;3.88;;;;;;;7.44;100.00;102279.03;6299677;28;20048;-73
2024/02/20 07:26:39;;;;;;;36.15;4.00;;;;;;;7.39;100.00;102280.88;6300068;28;20051;-74
2024/02/20 07:29:42;;;;;;;22.52;3.53;;;;;;;7.32;100.00;102280.13;6299308;28;20571;-75
2024/02/20 07:32:44;;;;;;;17.80;2.88;;;;;;;7.29;100.00;102267.06;6299959;28;20131;-73
2024/02/20 07:35:45;;;;;;;35.25;3.33;;;;;;;7.37;100.00;102272.19;6290448;28;20456;-74
2024/02/20 07:38:47;;;;;;;24.33;2.50;;;;;;;7.35;100.00;102274.81;6280183;28;20053;-73
2024/02/20 07:41:48;;;;;;;33.05;3.80;;;;;;;7.50;100.00;102273.72;6309641;22;20473;-79
2024/02/20 07:44:51;;;;;;;27.67;4.25;;;;;;;7.45;100.00;102280.78;6274682;28;20041;-79
2024/02/20 07:47:52;;;;;;;22.35;3.33;;;;;;;7.43;100.00;102277.31;6294184;28;20162;-79
2024/02/20 07:50:53;;;;;;;30.90;3.45;;;;;;;7.39;100.00;102280.88;6299834;28;20040;-79
2024/02/20 07:53:55;;;;;;;34.40;3.47;;;;;;;7.45;100.00;102287.75;6293201;28;20090;-79
2024/02/20 07:56:56;;;;;;;27.92;4.95;;;;;;;7.42;100.00;102282.59;6278653;28;20052;-78
2024/02/20 07:59:59;;;;;;;30.35;4.63;;;;;;;7.41;100.00;102286.09;6299165;28;20052;-79
2024/02/20 08:03:00;;;;;;;23.38;3.08;;;;;;;7.34;100.00;102280.94;6299848;28;20045;-79
2024/02/20 08:06:01;;;;;;;33.72;4.18;;;;;;;7.31;100.00;102267.94;6296435;28;20052;-78
2024/02/20 08:09:03;;;;;;;35.65;4.22;;;;;;;7.39;100.00;102278.25;6273949;28;20048;-79
2024/02/20 08:12:05;;;;;;;38.00;4.15;;;;;;;7.50;100.00;102284.19;6296460;28;20098;-78
2024/02/20 08:15:09;;;;;;;28.77;3.75;;;;;;;7.51;100.00;102272.84;6299279;28;20062;-78
2024/02/20 08:18:10;;;;;;;22.20;3.40;;;;;;;7.53;100.00;102278.03;6271184;28;20057;-77
2024/02/20 08:21:11;;;;;;;33.00;4.05;;;;;;;7.57;100.00;102271.88;6261573;28;20056;-76
2024/02/20 08:24:14;;;;;;;35.67;3.83;;;;;;;7.62;100.00;102272.66;6267581;28;20045;-76
2024/02/20 08:27:15;;;;;;;25.85;4.40;;;;;;;7.67;100.00;102277.81;6269819;28;20135;-78
2024/02/20 08:30:22;;;;;;;37.70;5.00;;;;;;;7.70;100.00;102267.31;6288887;28;20441;-77
2024/02/20 08:33:23;;;;;;;25.40;4.60;;;;;;;7.67;100.00;102276.06;6294083;28;20053;-78
2024/02/20 08:36:24;;;;;;;20.02;3.75;;;;;;;7.74;100.00;102272.47;6266811;28;20052;-76
2024/02/20 08:39:26;;;;;;;37.45;5.20;;;;;;;7.79;100.00;102275.00;6298120;28;20056;-76
2024/02/20 08:42:27;;;;;;;22.25;4.80;;;;;;;7.81;100.00;102279.31;6275155;28;20045;-78
2024/02/20 08:45:31;;;;;;;35.75;5.18;;;;;;;7.79;100.00;102272.38;6274879;28;20052;-78
2024/02/20 08:48:33;;;;;;;29.15;5.20;;;;;;;7.80;100.00;102284.56;6259889;28;20045;-77
2024/02/20 08:51:34;;;;;;;25.60;5.82;;;;;;;7.81;100.00;102281.94;6258915;28;20054;-77
2024/02/20 08:54:37;;;;;;;19.90;4.63;;;;;;;7.83;100.00;102263.59;6273434;28;20128;-79
2024/02/20 08:57:39;;;;;;;27.45;4.47;;;;;;;8.08;100.00;102275.34;6287260;28;20440;-78
2024/02/20 09:00:41;;;;;;;20.45;4.95;;;;;;;8.10;100.00;102264.84;6294141;28;20041;-80
2024/02/20 09:03:43;;;;;;;22.42;4.38;;;;;;;8.17;100.00;102276.91;6275385;28;20041;-78
2024/02/20 09:06:46;;;;;;;31.38;4.40;;;;;;;8.19;100.00;102274.28;6271650;28;20045;-79
2024/02/20 09:09:47;;;;;;;18.52;4.28;;;;;;;8.11;100.00;102283.13;6278687;28;20053;-80
2024/02/20 09:12:48;;;;;;;20.15;4.15;;;;;;;8.08;100.00;102277.97;6283588;28;20053;-79
2024/02/20 09:15:53;;;;;;;26.00;4.22;;;;;;;8.23;100.00;102281.19;6268138;28;20060;-79
2024/02/20 09:18:54;;;;;;;26.88;5.13;;;;;;;8.26;100.00;102276.72;6270832;28;20123;-78
2024/02/20 09:21:55;;;;;;;25.08;4.28;;;;;;;8.17;100.00;102279.53;6270630;28;20048;-79
2024/02/20 09:24:57;;;;;;;22.75;4.72;;;;;;;8.25;100.00;102279.41;6274294;28;20055;-79
2024/02/20 09:27:58;;;;;;;27.55;5.75;;;;;;;8.16;100.00;102285.66;6297495;28;20056;-79
2024/02/20 09:31:01;;;;;;;16.73;3.85;;;;;;;8.18;100.00;102285.66;6291774;28;20049;-78
2024/02/20 09:34:02;;;;;;;15.48;3.08;;;;;;;8.27;100.00;102278.50;6279405;28;20376;-80
2024/02/20 09:37:04;;;;;;;14.18;3.60;;;;;;;8.26;100.00;102295.06;6273462;28;20072;-80
2024/02/20 09:40:06;;;;;;;12.80;3.90;;;;;;;8.39;100.00;102288.75;6298181;28;20049;-80
2024/02/20 09:43:09;;;;;;;18.75;3.15;;;;;;;8.51;100.00;102281.53;6291764;28;20592;-76
2024/02/20 09:46:17;;;;;;;21.25;3.58;;;;;;;8.55;100.00;102280.59;6273883;28;20041;-79
2024/02/20 09:49:19;;;;;;;24.20;3.65;;;;;;;8.54;100.00;102273.59;6296511;28;20441;-79
2024/02/20 09:52:21;;;;;;;20.45;3.78;;;;;;;8.67;100.00;102282.94;6277027;28;20044;-79
2024/02/20 09:55:24;;;;;;;21.27;3.35;;;;;;;8.75;100.00;102278.41;6300515;28;20063;-79
2024/02/20 09:58:26;;;;;;;15.55;2.70;;;;;;;8.75;100.00;102273.16;6301418;28;20056;-79
2024/02/20 10:01:31;;;;;;;9.48;2.75;;;;;;;8.72;100.00;102282.84;6291813;28;20486;-78
2024/02/20 10:04:34;;;;;;;23.85;4.15;;;;;;;8.79;100.00;102284.47;6301330;28;20048;-79
2024/02/20 10:07:38;;;;;;;12.13;2.53;;;;;;;8.83;100.00;102283.50;6300986;28;20048;-78
2024/02/20 10:10:42;;;;;;;19.35;2.88;;;;;;;8.87;100.00;102282.53;6295785;28;20045;-78
2024/02/20 10:13:44;;;;;;;16.75;3.05;;;;;;;8.98;100.00;102285.78;6301263;28;20049;-77
2024/02/20 10:16:46;;;;;;;13.98;2.97;;;;;;;8.95;100.00;102283.25;6301630;28;20075;-78
2024/02/20 10:19:48;;;;;;;17.75;2.30;;;;;;;9.02;100.00;102284.81;6300869;28;20054;-77
2024/02/20 10:22:49;;;;;;;23.20;4.38;;;;;;;8.95;100.00;102283.25;6301355;28;20131;-76
2024/02/20 10:25:57;;;;;;;15.13;2.72;;;;;;;8.86;100.00;102286.06;6294844;28;20037;-76
2024/02/20 10:28:59;;;;;;;26.45;3.05;;;;;;;8.93;100.00;102287.63;6300868;28;20137;-78
2024/02/20 10:32:02;;;;;;;21.23;3.08;;;;;;;9.00;100.00;102281.38;6301012;28;20048;-79
2024/02/20 10:35:05;;;;;;;15.65;3.20;;;;;;;8.85;100.00;102289.56;6300888;28;20049;-79
2024/02/20 10:38:06;;;;;;;14.43;2.95;;;;;;;9.04;100.00;102284.81;6279171;28;20048;-78
2024/02/20 10:41:08;;;;;;;16.60;3.00;;;;;;;9.06;100.00;102278.59;6288867;28;20044;-77
2024/02/20 10:44:09;;;;;;;20.77;3.05;;;;;;;9.06;100.00;102269.88;6300611;28;20053;-76
2024/02/20 10:47:12;;;;;;;31.10;4.40;;;;;;;9.15;100.00;102270.53;6300504;28;20055;-78
2024/02/20 10:50:15;;;;;;;10.18;2.97;;;;;;;9.22;100.00;102270.38;6297044;28;20053;-77
2024/02/20 10:53:17;;;;;;;11.65;3.03;;;;;;;9.39;100.00;102271.72;6274579;28;20061;-78
2024/02/20 10:56:20;;;;;;;19.23;3.50;;;;;;;9.46;100.00;102267.19;6276399;28;20045;-76
2024/02/20 10:59:22;;;;;;;21.90;3.13;;;;;;;9.65;100.00;102272.84;6275820;28;20044;-77
2024/02/20 11:02:27;;;;;;;27.02;3.67;;;;;;;9.66;100.00;102267.56;6276386;28;20338;-79
2024/02/20 11:05:29;;;;;;;24.45;3.30;;;;;;;9.74;100.00;102263.88;6275737;28;20048;-79
2024/02/20 11:08:31;;;;;;;13.65;2.05;;;;;;;9.66;100.00;102262.31;6276093;28;20045;-79
2024/02/20 11:11:32;;;;;;;17.65;3.75;;;;;;;9.54;100.00;102252.13;6275314;28;20056;-78
2024/02/20 11:14:34;;;;;;;19.48;2.85;;;;;;;9.68;100.00;102256.19;6276048;28;20045;-77
2024/02/20 11:17:37;;;;;;;21.38;3.15;;;;;;;9.78;100.00;102247.16;6283462;28;20552;-77
2024/02/20 11:20:39;;;;;;;17.05;2.53;;;;;;;9.71;100.00;102250.81;6299805;28;20055;-76
2024/02/20 11:23:41;;;;;;;20.17;4.35;;;;;;;9.68;100.00;102243.91;6299798;28;20048;-76
2024/02/20 11:26:44;;;;;;;26.10;2.92;;;;;;;9.84;100.00;102239.97;6285235;28;20349;-76
2024/02/20 11:29:46;;;;;;;21.48;2.75;;;;;;;9.73;100.00;102241.16;6299563;28;20045;-77
2024/02/20 11:32:50;;;;;;;24.90;2.72;;;;;;;9.91;100.00;102232.81;6299831;28;20056;-78
2024/02/20 11:35:52;;;;;;;13.60;2.40;;;;;;;10.03;100.00;102229.81;6278655;28;20045;-77
2024/02/20 11:39:01;;;;;;;24.90;3.08;;;;;;;10.10;100.00;102220.03;6271817;28;20140;-77
2024/02/20 11:42:03;;;;;;;14.20;2.45;;;;;;;10.10;100.00;102220.88;6272761;28;20135;-78
2024/02/20 11:45:19;;;;;;;14.48;2.38;;;;;;;10.11;100.00;102217.34;6282335;28;20050;-78
2024/02/20 11:48:22;;;;;;;15.60;3.28;;;;;;;10.10;100.00;102218.25;6272831;28;20053;-77
2024/02/20 11:51:25;;;;;;;22.38;3.03;;;;;;;10.14;100.00;102209.41;6296420;28;20044;-78
2024/02/20 11:54:26;;;;;;;13.95;2.22;;;;;;;10.21;100.00;102212.69;6299648;28;20051;-77
2024/02/20 11:57:28;;;;;;;20.75;3.20;;;;;;;10.15;100.00;102203.22;6299590;28;20052;-76
2024/02/20 12:00:32;;;;;;;22.25;2.95;;;;;;;10.18;100.00;102196.19;6285014;28;20065;-77
2024/02/20 12:03:36;;;;;;;21.10;2.72;;;;;;;10.27;100.00;102193.31;6274782;28;20349;-76
2024/02/20 12:06:39;;;;;;;18.17;2.97;;;;;;;10.31;100.00;102195.81;6299351;28;20048;-79
2024/02/20 12:09:40;;;;;;;22.17;2.97;;;;;;;10.48;100.00;102199.69;6299378;28;20428;-79
2024/02/20 12:12:41;;;;;;;10.95;2.47;;;;;;;10.45;100.00;102189.31;6286933;28;20049;-79
2024/02/20 12:15:44;;;;;;;20.60;2.42;;;;;;;10.48;100.00;102189.19;6290876;28;20041;-76
2024/02/20 12:18:48;;;;;;;22.63;2.72;;;;;;;10.53;100.00;102201.28;6298712;28;20044;-82
2024/02/20 12:21:49;;;;;;;15.30;2.22;;;;;;;10.48;100.00;102211.06;6294644;28;20076;-78
2024/02/20 12:24:50;;;;;;;12.27;3.28;;;;;;;10.55;100.00;102196.00;6283953;28;20073;-77
2024/02/20 12:27:53;;;;;;;17.08;2.65;;;;;;;10.45;100.00;102194.56;6285184;28;20071;-75
2024/02/20 12:30:54;;;;;;;15.55;2.30;;;;;;;10.40;100.00;102190.28;6281483;28;20449;-78
2024/02/20 12:33:59;;;;;;;12.48;2.13;;;;;;;10.31;100.00;102182.69;6280661;28;20049;-77
2024/02/20 12:37:00;;;;;;;17.02;2.75;;;;;;;10.47;100.00;102180.44;6285325;28;20458;-77
2024/02/20 12:40:01;;;;;;;16.92;2.50;;;;;;;10.40;100.00;102179.78;6284521;28;20049;-78
2024/02/20 12:43:03;;;;;;;19.35;2.40;;;;;;;10.43;100.00;102178.81;6282896;28;20048;-78
2024/02/20 12:46:05;;;;;;;14.45;2.88;;;;;;;10.43;100.00;102175.34;6298982;28;20044;-77
2024/02/20 12:49:08;;;;;;;11.95;2.35;;;;;;;10.45;100.00;102171.75;6288274;28;20175;-78
2024/02/20 12:52:10;;;;;;;17.38;2.78;;;;;;;10.42;100.00;102179.72;6279502;28;20476;-78
2024/02/20 12:55:11;;;;;;;17.38;2.63;;;;;;;10.57;100.00;102176.63;6279444;28;20045;-78
2024/02/20 12:58:13;;;;;;;10.70;2.45;;;;;;;10.63;100.00;102180.88;6283495;28;20049;-79
2024/02/20 13:01:15;;;;;;;10.35;2.22;;;;;;;10.49;100.00;102178.66;6284402;28;20152;-79
2024/02/20 13:04:17;;;;;;;12.80;2.28;;;;;;;10.43;100.00;102181.44;6287096;28;20056;-77
2024/02/20 13:07:19;;;;;;;17.48;3.35;;;;;;;10.47;100.00;102176.97;6284255;28;20041;-76
2024/02/20 13:10:20;;;;;;;13.27;3.05;;;;;;;10.34;100.00;102165.94;6278939;28;20050;-76
2024/02/20 13:13:22;;;;;;;14.95;2.75;;;;;;;10.33;100.00;102161.59;6295091;28;20049;-76
2024/02/20 13:16:23;;;;;;;14.40;3.47;;;;;;;10.48;100.00;102163.75;6302618;28;20067;-77
2024/02/20 13:19:26;;;;;;;13.90;3.58;;;;;;;10.50;100.00;102172.47;6302130;28;20049;-79
2024/02/20 13:22:29;;;;;;;18.60;4.00;;;;;;;10.55;100.00;102174.97;6285636;28;20056;-79
2024/02/20 13:25:30;;;;;;;17.30;3.13;;;;;;;10.59;100.00;102173.97;6276331;28;20045;-77
2024/02/20 13:28:32;;;;;;;15.38;4.13;;;;;;;10.49;100.00;102165.50;6278998;28;20045;-79
2024/02/20 13:31:33;;;;;;;21.25;3.20;;;;;;;10.45;100.00;102169.13;6280489;28;20045;-79
2024/02/20 13:34:36;;;;;;;16.83;3.28;;;;;;;10.49;100.00;102167.25;6279386;28;20052;-77
2024/02/20 13:37:37;;;;;;;24.27;4.25;;;;;;;10.57;100.00;102174.00;6277724;28;20355;-77
2024/02/20 13:40:38;;;;;;;23.40;3.45;;;;;;;10.58;100.00;102169.59;6280751;28;20068;-79
2024/02/20 13:43:40;;;;;;;33.92;8.40;;;;;;;10.59;100.00;102172.19;6287040;22;20037;-74
2024/02/20 13:46:41;;;;;;;17.65;3.05;;;;;;;10.53;100.00;102156.59;6265405;28;20056;-73
2024/02/20 13:49:44;;;;;;;16.10;3.40;;;;;;;10.69;100.00;102153.50;6269554;28;20049;-74
2024/02/20 13:52:46;;;;;;;17.05;3.22;;;;;;;10.57;100.00;102157.38;6257444;28;20371;-73
2024/02/20 13:55:49;;;;;;;18.70;3.40;;;;;;;10.59;100.00;102152.94;6242941;28;20472;-73